(°C)
(°C)
-3°
-2°
-2°
-1°
-0°
JJZ
JZ
JZ
JZ
JZ
JJZ
JJZ
(km/h)
21-34
20-33
20-31
20-31
20-29
20-31
21-34
(mm)
0
0
0
0
0
0
0
(%)
39
10
9
9
1
0
0

Sluneční výška

/ -17.4°
sun-icon
UV 0
08:03
17:57
Ubývající měsíc (201°)
18:29
09:54

METAR pro 57.92°S 56.02°V (USPP)

Čas Podmínky Teplota/
Rosný bod
Vítr Viditelnost Počasí Oblaky Tlak Změna Nezpracované
IFR 3°C / 1°C 240º 12kt >10km - Overcast 600ft 994 No Significant change. Runway 21: Slush, 11-25% contamination with 3mm, friction coefficient 0.45. USPP 220030Z 24006MPS 9999 OVC006 03/01 Q0994 R21/620345 NOSIG RMK QBB190 QFE735
IFR 2°C / 1°C 250º 12kt >10km - Overcast 500ft 994 No Significant change. Runway 21: Slush, 11-25% contamination with 3mm, friction coefficient 0.45. USPP 220000Z 25006MPS 9999 OVC005 02/01 Q0994 R21/620345 NOSIG RMK QBB150 QFE735
IFR 2°C / 1°C 240º 10kt >10km - Overcast 600ft 994 No Significant change. Runway 21: Slush, 11-25% contamination with 3mm, friction coefficient 0.45. USPP 212330Z 24005MPS 9999 OVC006 02/01 Q0994 R21/620345 NOSIG RMK QBB190 QFE735
IFR 2°C / 1°C 250º variable 210º to 270º 10kt >10km - Overcast 600ft 994 No Significant change. Runway 21: Slush, 11-25% contamination with 3mm, friction coefficient 0.45. USPP 212300Z 25005MPS 210V270 9999 OVC006 02/01 Q0994 R21/620345 NOSIG RMK QBB180 QFE735
IFR 2°C / 0°C 230º 10kt 9000m - Overcast 600ft 994 No Significant change. Runway 21: Slush, 11-25% contamination with 3mm, friction coefficient 0.45. USPP 212230Z 23005MPS 9000 OVC006 02/00 Q0994 R21/620345 NOSIG RMK QBB200 QFE735
IFR 2°C / 0°C 230º 12kt >10km - Broken Clouds 700ft
Overcast 2000ft
994 No Significant change. Runway 21: Slush, 11-25% contamination with 3mm, friction coefficient 0.45. USPP 212200Z 23006MPS 9999 BKN007 OVC020 02/00 Q0994 R21/620345 NOSIG RMK QFE735
IFR 1°C / 0°C 230º 10kt >10km - Broken Clouds 800ft
Overcast 1700ft
993 No Significant change. Runway 21: Slush, 11-25% contamination with 3mm, friction coefficient 0.45. USPP 212130Z 23005MPS 9999 BKN008 OVC017 01/M00 Q0993 R21/620345 NOSIG RMK QFE734
IFR 1°C / 0°C 230º 12kt >10km Light Rain 1.00mm precipitation Vertical Visibility of 0ft. 993 No Significant change. Runway 21: Slush, 51-100% contamination with 10mm, friction coefficient 0.35. USPP 212100Z 23006MPS 9999 -RA OVC008 01/M00 Q0993 R21/691035 NOSIG RMK QFE735
MVFR 1°C / -1°C 220º 10kt >10km Light Rain 1.00mm precipitation Vertical Visibility of 0ft. 994 No Significant change. Runway 21: Slush, 51-100% contamination with 10mm, friction coefficient 0.35. USPP 212030Z 22005MPS 9999 -RA BKN011 01/M01 Q0994 R21/691035 NOSIG RMK QFE735
MVFR 1°C / -1°C 210º 10kt 9000m Light Snow 1.00mm precipitation Vertical Visibility of 0ft. 994 No Significant change. Runway 21: Slush, 51-100% contamination with 10mm, friction coefficient 0.35. USPP 212000Z 21005MPS 9000 -SN BKN011 01/M01 Q0994 R21/691035 NOSIG RMK QFE735
MVFR 1°C / -1°C 210º 10kt >10km Light Snow 1.00mm precipitation Vertical Visibility of 0ft. 994 No Significant change. Runway 21: Slush, 51-100% contamination with 10mm, friction coefficient 0.35. USPP 211930Z 21005MPS 9999 -SN BKN012 01/M01 Q0994 R21/691035 NOSIG RMK QFE735
MVFR 1°C / -1°C 210º 12kt >10km Light Snow 1.00mm precipitation Vertical Visibility of 0ft. 994 No Significant change. Runway 21: Slush, 51-100% contamination with 10mm, friction coefficient 0.35. USPP 211900Z 21006MPS 9999 -SN BKN012 01/M01 Q0994 R21/691035 NOSIG RMK QFE735
MVFR 1°C / -1°C 200º 12kt 6000m Light Snow 1.00mm precipitation Vertical Visibility of 0ft. 994 No Significant change. Runway 21: Slush, 51-100% contamination with 10mm, friction coefficient 0.35. USPP 211830Z 20006MPS 6000 2900NE -SN BKN010 01/M01 Q0994 RESN R21/691035 NOSIG RMK QFE735
MVFR 1°C / -1°C 200º 10kt >10km Light Snow 1.00mm precipitation Vertical Visibility of 0ft. 995 No Significant change. Runway 21: Slush, 51-100% contamination with 10mm, friction coefficient 0.35. USPP 211800Z 20005MPS 9999 -SN BKN015 01/M01 Q0995 R21/691035 NOSIG RMK QFE735
MVFR 1°C / -1°C 200º 12kt >10km Light Snow 1.00mm precipitation Vertical Visibility of 0ft. 995 No Significant change. Runway 21: Slush, 51-100% contamination with 10mm, friction coefficient 0.35. USPP 211730Z 20006MPS 9999 -SN BKN015 01/M01 Q0995 R21/691035 NOSIG RMK QFE736
IFR 1°C / -1°C 190º 12kt 4600m Light Snow 1.00mm precipitation Vertical Visibility of 0ft. 996 No Significant change. Runway 21: Slush, 51-100% contamination with 10mm, friction coefficient 0.35. USPP 211700Z 19006MPS 4600 -SN BKN012 01/M01 Q0996 RESN R21/691035 NOSIG RMK QFE736
IFR 0°C / -1°C 180º 12kt 2100m Light Snow 1.00mm precipitation Vertical Visibility of 0ft.
Broken Clouds 1800ft
996 Temporary: Visibility 0500. Heavy Snow . Overcast 200ft. RMK QFE737 . Runway 21: Slush, 51-100% contamination with 10mm, friction coefficient 0.35. USPP 211630Z 18006MPS 2100 -SN BKN009 BKN018 00/M01 Q0996 RESN R21/691035 TEMPO 0500 +SN OVC002 RMK QFE737
LIFR 0°C / -1°C 170º 10kt 1000m. Runway 21: Visual range is 2000m and decreasing. Heavy Snow 7.00mm precipitation Vertical Visibility of 0ft.
Broken Clouds 1400ft
997 Temporary: Visibility 0500. Heavy Snow . Overcast 200ft. RMK QBB150 QFE737 . Runway 21: Slush, 11-25% contamination with 10mm, friction coefficient 0.45. USPP 211600Z 17005MPS 1000 0900SW R21/P2000D +SN BKN005 BKN014 00/M01 Q0997 R21/621045 TEMPO 0500 +SN OVC002 RMK QBB150 QFE737
LIFR 0°C / -1°C 170º 12kt 1600m. Runway 21: Visual range is 2000m and increasing. Snow 3.00mm precipitation Vertical Visibility of 0ft.
Broken Clouds 1400ft
998 Temporary: Visibility 0500. Heavy Snow . Overcast 200ft. RMK QFE738 . Runway 21: Slush, 11-25% contamination with 10mm, friction coefficient 0.45. USPP 211530Z 17006MPS 1600 R21/P2000U SN BKN009 BKN014 00/M01 Q0998 R21/621045 TEMPO 0500 +SN OVC002 RMK QFE738
IFR 0°C / -2°C 170º 10kt 2000m. Runway 21: Visual range is 2000m. Snow 3.00mm precipitation Vertical Visibility of 0ft.
Broken Clouds 1400ft
998 Temporary: Visibility 0500. Heavy Snow . Overcast 200ft. RMK QFE738 . Runway 21: Slush, 11-25% contamination with 10mm, friction coefficient 0.45. USPP 211500Z 17005MPS 2000 R21/P2000N SN BKN009 BKN014 M00/M02 Q0998 R21/621045 TEMPO 0500 +SN OVC002 RMK QFE738
IFR 0°C / -2°C 160º 10kt 1700m. Runway 21: Visual range is 2000m and increasing. Snow 3.00mm precipitation Vertical Visibility of 0ft.
Broken Clouds 1600ft
999 Temporary: Visibility 0500. Heavy Snow . Overcast 200ft. RMK QFE739 . Runway 21: Slush, 11-25% contamination with 10mm, friction coefficient 0.45. USPP 211430Z 16005MPS 1700 R21/P2000U SN BKN009 BKN016 M00/M02 Q0999 R21/621045 TEMPO 0500 +SN OVC002 RMK QFE739
IFR 0°C / -2°C 160º 10kt 1900m. Runway 21: Visual range is 2000m. Snow 3.00mm precipitation Vertical Visibility of 0ft. 1000 Temporary: Visibility 0500. Heavy Snow . Overcast 200ft. RMK QFE739 . Runway 21: Slush, 11-25% contamination with 10mm, friction coefficient 0.45. USPP 211400Z 16005MPS 1900 R21/P2000N SN BKN011 M00/M02 Q1000 R21/621045 TEMPO 0500 +SN OVC002 RMK QFE739
IFR 0°C / -2°C 160º variable 140º to 210º 10kt 2000m. Runway 21: Visual range is 2000m and increasing. Snow 3.00mm precipitation Vertical Visibility of 0ft. 1001 Temporary: Visibility 0500. Heavy Snow . Overcast 200ft. RMK QFE740 . Runway 21: Wet or puddles, 51-100% contamination with 1mm, friction coefficient 0.50. USPP 211330Z 16005MPS 140V210 2000 R21/2000U SN BKN011 M00/M02 Q1001 R21/290150 TEMPO 0500 +SN OVC002 RMK QFE740
MVFR 0°C / -3°C 190º 12kt 5000m Light Snow 1.00mm precipitation Vertical Visibility of 0ft. 1002 Temporary: Visibility 0500. Heavy Snow . Overcast 200ft. RMK QFE741 . Runway 21: Wet or puddles, 51-100% contamination with 1mm, friction coefficient 0.50. USPP 211300Z 19006MPS 5000 -SN BKN015 00/M03 Q1002 R21/290150 TEMPO 0500 +SN OVC002 RMK QFE741

IFR

3°C / 1°C

[Víc]
Vítr 240º 12kt
Viditelnost >10km
Počasí -
Oblaky Overcast 600ft
Tlak 994
Změna No Significant change. Runway 21: Slush, 11-25% contamination with 3mm, friction coefficient 0.45.
Nezpracované USPP 220030Z 24006MPS 9999 OVC006 03/01 Q0994 R21/620345 NOSIG RMK QBB190 QFE735

IFR

2°C / 1°C

[Víc]
Vítr 250º 12kt
Viditelnost >10km
Počasí -
Oblaky Overcast 500ft
Tlak 994
Změna No Significant change. Runway 21: Slush, 11-25% contamination with 3mm, friction coefficient 0.45.
Nezpracované USPP 220000Z 25006MPS 9999 OVC005 02/01 Q0994 R21/620345 NOSIG RMK QBB150 QFE735

IFR

2°C / 1°C

[Víc]
Vítr 240º 10kt
Viditelnost >10km
Počasí -
Oblaky Overcast 600ft
Tlak 994
Změna No Significant change. Runway 21: Slush, 11-25% contamination with 3mm, friction coefficient 0.45.
Nezpracované USPP 212330Z 24005MPS 9999 OVC006 02/01 Q0994 R21/620345 NOSIG RMK QBB190 QFE735

IFR

2°C / 1°C

[Víc]
Vítr 250º variable 210º to 270º 10kt
Viditelnost >10km
Počasí -
Oblaky Overcast 600ft
Tlak 994
Změna No Significant change. Runway 21: Slush, 11-25% contamination with 3mm, friction coefficient 0.45.
Nezpracované USPP 212300Z 25005MPS 210V270 9999 OVC006 02/01 Q0994 R21/620345 NOSIG RMK QBB180 QFE735

IFR

2°C / 0°C

[Víc]
Vítr 230º 10kt
Viditelnost 9000m
Počasí -
Oblaky Overcast 600ft
Tlak 994
Změna No Significant change. Runway 21: Slush, 11-25% contamination with 3mm, friction coefficient 0.45.
Nezpracované USPP 212230Z 23005MPS 9000 OVC006 02/00 Q0994 R21/620345 NOSIG RMK QBB200 QFE735

IFR

2°C / 0°C

[Víc]
Vítr 230º 12kt
Viditelnost >10km
Počasí -
Oblaky Broken Clouds 700ft
Overcast 2000ft
Tlak 994
Změna No Significant change. Runway 21: Slush, 11-25% contamination with 3mm, friction coefficient 0.45.
Nezpracované USPP 212200Z 23006MPS 9999 BKN007 OVC020 02/00 Q0994 R21/620345 NOSIG RMK QFE735

IFR

1°C / 0°C

[Víc]
Vítr 230º 10kt
Viditelnost >10km
Počasí -
Oblaky Broken Clouds 800ft
Overcast 1700ft
Tlak 993
Změna No Significant change. Runway 21: Slush, 11-25% contamination with 3mm, friction coefficient 0.45.
Nezpracované USPP 212130Z 23005MPS 9999 BKN008 OVC017 01/M00 Q0993 R21/620345 NOSIG RMK QFE734

IFR

1°C / 0°C

[Víc]
Vítr 230º 12kt
Viditelnost >10km
Počasí Light Rain 1.00mm precipitation
Oblaky Vertical Visibility of 0ft.
Tlak 993
Změna No Significant change. Runway 21: Slush, 51-100% contamination with 10mm, friction coefficient 0.35.
Nezpracované USPP 212100Z 23006MPS 9999 -RA OVC008 01/M00 Q0993 R21/691035 NOSIG RMK QFE735

MVFR

1°C / -1°C

[Víc]
Vítr 220º 10kt
Viditelnost >10km
Počasí Light Rain 1.00mm precipitation
Oblaky Vertical Visibility of 0ft.
Tlak 994
Změna No Significant change. Runway 21: Slush, 51-100% contamination with 10mm, friction coefficient 0.35.
Nezpracované USPP 212030Z 22005MPS 9999 -RA BKN011 01/M01 Q0994 R21/691035 NOSIG RMK QFE735

MVFR

1°C / -1°C

[Víc]
Vítr 210º 10kt
Viditelnost 9000m
Počasí Light Snow 1.00mm precipitation
Oblaky Vertical Visibility of 0ft.
Tlak 994
Změna No Significant change. Runway 21: Slush, 51-100% contamination with 10mm, friction coefficient 0.35.
Nezpracované USPP 212000Z 21005MPS 9000 -SN BKN011 01/M01 Q0994 R21/691035 NOSIG RMK QFE735

MVFR

1°C / -1°C

[Víc]
Vítr 210º 10kt
Viditelnost >10km
Počasí Light Snow 1.00mm precipitation
Oblaky Vertical Visibility of 0ft.
Tlak 994
Změna No Significant change. Runway 21: Slush, 51-100% contamination with 10mm, friction coefficient 0.35.
Nezpracované USPP 211930Z 21005MPS 9999 -SN BKN012 01/M01 Q0994 R21/691035 NOSIG RMK QFE735

MVFR

1°C / -1°C

[Víc]
Vítr 210º 12kt
Viditelnost >10km
Počasí Light Snow 1.00mm precipitation
Oblaky Vertical Visibility of 0ft.
Tlak 994
Změna No Significant change. Runway 21: Slush, 51-100% contamination with 10mm, friction coefficient 0.35.
Nezpracované USPP 211900Z 21006MPS 9999 -SN BKN012 01/M01 Q0994 R21/691035 NOSIG RMK QFE735

MVFR

1°C / -1°C

[Víc]
Vítr 200º 12kt
Viditelnost 6000m
Počasí Light Snow 1.00mm precipitation
Oblaky Vertical Visibility of 0ft.
Tlak 994
Změna No Significant change. Runway 21: Slush, 51-100% contamination with 10mm, friction coefficient 0.35.
Nezpracované USPP 211830Z 20006MPS 6000 2900NE -SN BKN010 01/M01 Q0994 RESN R21/691035 NOSIG RMK QFE735

MVFR

1°C / -1°C

[Víc]
Vítr 200º 10kt
Viditelnost >10km
Počasí Light Snow 1.00mm precipitation
Oblaky Vertical Visibility of 0ft.
Tlak 995
Změna No Significant change. Runway 21: Slush, 51-100% contamination with 10mm, friction coefficient 0.35.
Nezpracované USPP 211800Z 20005MPS 9999 -SN BKN015 01/M01 Q0995 R21/691035 NOSIG RMK QFE735

MVFR

1°C / -1°C

[Víc]
Vítr 200º 12kt
Viditelnost >10km
Počasí Light Snow 1.00mm precipitation
Oblaky Vertical Visibility of 0ft.
Tlak 995
Změna No Significant change. Runway 21: Slush, 51-100% contamination with 10mm, friction coefficient 0.35.
Nezpracované USPP 211730Z 20006MPS 9999 -SN BKN015 01/M01 Q0995 R21/691035 NOSIG RMK QFE736

IFR

1°C / -1°C

[Víc]
Vítr 190º 12kt
Viditelnost 4600m
Počasí Light Snow 1.00mm precipitation
Oblaky Vertical Visibility of 0ft.
Tlak 996
Změna No Significant change. Runway 21: Slush, 51-100% contamination with 10mm, friction coefficient 0.35.
Nezpracované USPP 211700Z 19006MPS 4600 -SN BKN012 01/M01 Q0996 RESN R21/691035 NOSIG RMK QFE736

IFR

0°C / -1°C

[Víc]
Vítr 180º 12kt
Viditelnost 2100m
Počasí Light Snow 1.00mm precipitation
Oblaky Vertical Visibility of 0ft.
Broken Clouds 1800ft
Tlak 996
Změna Temporary: Visibility 0500. Heavy Snow . Overcast 200ft. RMK QFE737 . Runway 21: Slush, 51-100% contamination with 10mm, friction coefficient 0.35.
Nezpracované USPP 211630Z 18006MPS 2100 -SN BKN009 BKN018 00/M01 Q0996 RESN R21/691035 TEMPO 0500 +SN OVC002 RMK QFE737

LIFR

0°C / -1°C

[Víc]
Vítr 170º 10kt
Viditelnost 1000m. Runway 21: Visual range is 2000m and decreasing.
Počasí Heavy Snow 7.00mm precipitation
Oblaky Vertical Visibility of 0ft.
Broken Clouds 1400ft
Tlak 997
Změna Temporary: Visibility 0500. Heavy Snow . Overcast 200ft. RMK QBB150 QFE737 . Runway 21: Slush, 11-25% contamination with 10mm, friction coefficient 0.45.
Nezpracované USPP 211600Z 17005MPS 1000 0900SW R21/P2000D +SN BKN005 BKN014 00/M01 Q0997 R21/621045 TEMPO 0500 +SN OVC002 RMK QBB150 QFE737

LIFR

0°C / -1°C

[Víc]
Vítr 170º 12kt
Viditelnost 1600m. Runway 21: Visual range is 2000m and increasing.
Počasí Snow 3.00mm precipitation
Oblaky Vertical Visibility of 0ft.
Broken Clouds 1400ft
Tlak 998
Změna Temporary: Visibility 0500. Heavy Snow . Overcast 200ft. RMK QFE738 . Runway 21: Slush, 11-25% contamination with 10mm, friction coefficient 0.45.
Nezpracované USPP 211530Z 17006MPS 1600 R21/P2000U SN BKN009 BKN014 00/M01 Q0998 R21/621045 TEMPO 0500 +SN OVC002 RMK QFE738

IFR

0°C / -2°C

[Víc]
Vítr 170º 10kt
Viditelnost 2000m. Runway 21: Visual range is 2000m.
Počasí Snow 3.00mm precipitation
Oblaky Vertical Visibility of 0ft.
Broken Clouds 1400ft
Tlak 998
Změna Temporary: Visibility 0500. Heavy Snow . Overcast 200ft. RMK QFE738 . Runway 21: Slush, 11-25% contamination with 10mm, friction coefficient 0.45.
Nezpracované USPP 211500Z 17005MPS 2000 R21/P2000N SN BKN009 BKN014 M00/M02 Q0998 R21/621045 TEMPO 0500 +SN OVC002 RMK QFE738

IFR

0°C / -2°C

[Víc]
Vítr 160º 10kt
Viditelnost 1700m. Runway 21: Visual range is 2000m and increasing.
Počasí Snow 3.00mm precipitation
Oblaky Vertical Visibility of 0ft.
Broken Clouds 1600ft
Tlak 999
Změna Temporary: Visibility 0500. Heavy Snow . Overcast 200ft. RMK QFE739 . Runway 21: Slush, 11-25% contamination with 10mm, friction coefficient 0.45.
Nezpracované USPP 211430Z 16005MPS 1700 R21/P2000U SN BKN009 BKN016 M00/M02 Q0999 R21/621045 TEMPO 0500 +SN OVC002 RMK QFE739

IFR

0°C / -2°C

[Víc]
Vítr 160º 10kt
Viditelnost 1900m. Runway 21: Visual range is 2000m.
Počasí Snow 3.00mm precipitation
Oblaky Vertical Visibility of 0ft.
Tlak 1000
Změna Temporary: Visibility 0500. Heavy Snow . Overcast 200ft. RMK QFE739 . Runway 21: Slush, 11-25% contamination with 10mm, friction coefficient 0.45.
Nezpracované USPP 211400Z 16005MPS 1900 R21/P2000N SN BKN011 M00/M02 Q1000 R21/621045 TEMPO 0500 +SN OVC002 RMK QFE739

IFR

0°C / -2°C

[Víc]
Vítr 160º variable 140º to 210º 10kt
Viditelnost 2000m. Runway 21: Visual range is 2000m and increasing.
Počasí Snow 3.00mm precipitation
Oblaky Vertical Visibility of 0ft.
Tlak 1001
Změna Temporary: Visibility 0500. Heavy Snow . Overcast 200ft. RMK QFE740 . Runway 21: Wet or puddles, 51-100% contamination with 1mm, friction coefficient 0.50.
Nezpracované USPP 211330Z 16005MPS 140V210 2000 R21/2000U SN BKN011 M00/M02 Q1001 R21/290150 TEMPO 0500 +SN OVC002 RMK QFE740

MVFR

0°C / -3°C

[Víc]
Vítr 190º 12kt
Viditelnost 5000m
Počasí Light Snow 1.00mm precipitation
Oblaky Vertical Visibility of 0ft.
Tlak 1002
Změna Temporary: Visibility 0500. Heavy Snow . Overcast 200ft. RMK QFE741 . Runway 21: Wet or puddles, 51-100% contamination with 1mm, friction coefficient 0.50.
Nezpracované USPP 211300Z 19006MPS 5000 -SN BKN015 00/M03 Q1002 R21/290150 TEMPO 0500 +SN OVC002 RMK QFE741

TAF pro 57.92°S 56.02°V (USPP)

From till


From till Wind 220º 8kt. Gust 23kt. Visibility 2200m. Light Drizzle Mist . Overcast 500ft.
Temporarly from till Visibility 498.895m. Fog . Obscured Sky.
Becoming from till Wind 220º 8kt. Gust 23kt. Visibility 6000m. Light Rain . Overcast 1100ft.

Nezpracované: TAF USPP 212254Z 2200/2224 22004G12MPS 2200 -DZ BR OVC005 TEMPO 2200/2207 0500 FG VV001 BECMG 2207/2209 6000 -RA OVC011

Aktuální snímky ze satelitu a srážky pro 57.92°S 56.02°V

Značka polohy je umístěna na 57.92°S 56.02°V. [Víc]

Satelitní snímek v reálném čase kombinuje viditelné světlo během dne s infračerveným zářením během noci. V noci není obraz tmavý, protože infračervené záření dokáže detekovat teplotní rozdíly. Nízká oblačnost a mlha se bohužel těžko odlišují od pozemních teplot, a proto mohou být během noci téměř neviditelné. Satelitní snímky z Meteosatu pro Evropu jsou aktualizovány v reálném čase každých 5 minut. Snímky z GOES-16/GOES-17 (Severní a Jižní Amerika) a Himawari (Asie) jsou aktualizovány) každých 10 minut.

Copyright 2021 EUMETSAT / meteoblue. / Copyright 2021 meteoblue

Radar a krátkodobá předpověď srážek pro 57.92°S 56.02°V

Mrholení
Slabé
Střední
Silné
Velmi silné
Kroupy

Značka lokality je umístněna na 57.92°S 56.02°V. Tato animace ukazuje srážky zaznamenané radarem za poslední hodinu a také 1h předpověď. Mrholení nebo slabé sněžení může být pro radar neviditelné. Intenzita srážek je barevně označena od světle modré po oranžovou.